createdAt,value
2018-07-06T00:00:40.488Z,39.6
2018-07-06T00:01:30.984Z,39.6
2018-07-06T00:02:20.310Z,39.6
2018-07-06T00:03:11.159Z,39.6
2018-07-06T00:04:01.214Z,39.5
2018-07-06T00:04:50.409Z,39.6
2018-07-06T00:05:41.053Z,39.6
2018-07-06T00:06:31.386Z,39.5
2018-07-06T00:07:21.453Z,39.5
2018-07-06T00:08:10.692Z,39.5
2018-07-06T00:09:01.304Z,39.5
2018-07-06T00:09:51.388Z,39.5
2018-07-06T00:10:41.874Z,39.5
2018-07-06T00:11:31.495Z,39.5
2018-07-06T00:12:21.955Z,39.5
2018-07-06T00:13:11.091Z,39.5
2018-07-06T00:14:01.158Z,39.5
2018-07-06T00:14:51.605Z,39.5
2018-07-06T00:15:41.825Z,39.4
2018-07-06T00:16:32.169Z,39.5
2018-07-06T00:17:21.687Z,39.4
2018-07-06T00:18:12.032Z,39.4
2018-07-06T00:19:01.547Z,39.4
2018-07-06T00:19:52.168Z,39.4
2018-07-06T00:20:42.559Z,39.4
2018-07-06T00:21:32.279Z,39.4
2018-07-06T00:22:22.311Z,39.4
2018-07-06T00:23:12.946Z,39.4
2018-07-06T00:24:02.204Z,39.4
2018-07-06T00:24:52.562Z,39.4
2018-07-06T00:25:42.034Z,39.4
2018-07-06T00:26:32.196Z,39.4
2018-07-06T00:27:21.031Z,39.4
2018-07-06T00:28:13.074Z,39.4
2018-07-06T00:29:02.873Z,39.4
2018-07-06T00:29:52.976Z,39.4
2018-07-06T00:30:42.742Z,39.4
2018-07-06T00:31:33.588Z,39.4
2018-07-06T00:32:23.098Z,39.4
2018-07-06T00:33:13.417Z,39.4
2018-07-06T00:34:03.785Z,39.4
2018-07-06T00:34:53.348Z,39.4
2018-07-06T00:35:43.367Z,39.4
2018-07-06T00:36:33.718Z,39.3
2018-07-06T00:37:23.251Z,39.4
2018-07-06T00:38:12.740Z,39.3
2018-07-06T00:39:03.987Z,39.4
2018-07-06T00:39:54.265Z,39.3
2018-07-06T00:40:44.350Z,39.3
2018-07-06T00:41:34.132Z,39.3
2018-07-06T00:42:24.197Z,39.3
2018-07-06T00:43:13.717Z,39.3
2018-07-06T00:44:03.525Z,39.3
2018-07-06T00:44:53.790Z,39.3
2018-07-06T00:45:44.229Z,39.3
2018-07-06T00:46:33.983Z,39.3
2018-07-06T00:47:24.301Z,39.3
2018-07-06T00:48:14.339Z,39.3
2018-07-06T00:49:03.896Z,39.3
2018-07-06T00:49:55.045Z,39.3
2018-07-06T00:50:44.573Z,39.3
2018-07-06T00:51:34.600Z,39.3
2018-07-06T00:52:24.972Z,39.3
2018-07-06T00:53:14.167Z,39.3
2018-07-06T00:54:05.114Z,39.3
2018-07-06T00:54:55.728Z,39.3
2018-07-06T00:55:45.343Z,39.3
2018-07-06T00:56:35.289Z,39.3
2018-07-06T00:57:24.774Z,39.2
2018-07-06T00:58:15.432Z,39.2
2018-07-06T00:59:05.171Z,39.2
2018-07-06T00:59:55.633Z,39.2
2018-07-06T01:00:45.629Z,39.2
2018-07-06T01:01:36.301Z,39.2
2018-07-06T01:02:24.877Z,39.2
2018-07-06T01:03:15.763Z,39.2
2018-07-06T01:04:06.102Z,39.2
2018-07-06T01:04:56.172Z,39.2
2018-07-06T01:05:45.679Z,39.2
2018-07-06T01:06:35.783Z,39.2
2018-07-06T01:07:26.094Z,39.2
2018-07-06T01:08:16.454Z,39.1
2018-07-06T01:09:05.957Z,39.2
2018-07-06T01:09:55.755Z,39.2
2018-07-06T01:10:45.527Z,39.1
2018-07-06T01:11:36.453Z,39.1
2018-07-06T01:12:26.244Z,39.1
2018-07-06T01:13:16.552Z,39.1
2018-07-06T01:14:06.642Z,39.1
2018-07-06T01:14:57.035Z,39.1
2018-07-06T01:15:46.533Z,39.1
2018-07-06T01:16:36.552Z,39.1
2018-07-06T01:17:26.920Z,39.1
2018-07-06T01:18:16.441Z,39.1
2018-07-06T01:19:07.329Z,39.1
2018-07-06T01:19:57.119Z,39.1
2018-07-06T01:20:46.577Z,39.1
2018-07-06T01:21:36.957Z,39.1
2018-07-06T01:22:26.718Z,39.1
2018-07-06T01:23:16.813Z,39.1
2018-07-06T01:24:06.893Z,39.1
2018-07-06T01:24:57.782Z,39.1
2018-07-06T01:25:47.344Z,39.1
2018-07-06T01:26:37.682Z,39.1
2018-07-06T01:27:27.702Z,39.1
2018-07-06T01:28:17.732Z,39
2018-07-06T01:29:07.833Z,39.1
2018-07-06T01:29:57.337Z,39
2018-07-06T01:30:47.402Z,39
2018-07-06T01:31:37.998Z,39
2018-07-06T01:32:27.516Z,39
2018-07-06T01:33:17.845Z,39
2018-07-06T01:34:07.923Z,39
2018-07-06T01:34:57.952Z,39
2018-07-06T01:35:47.489Z,39
2018-07-06T01:36:37.523Z,39
2018-07-06T01:37:28.533Z,39
2018-07-06T01:38:17.935Z,39
2018-07-06T01:39:08.602Z,39
2018-07-06T01:39:58.116Z,39
2018-07-06T01:40:48.975Z,38.9
2018-07-06T01:41:38.205Z,38.9
2018-07-06T01:42:28.834Z,38.9
2018-07-06T01:43:18.634Z,38.9
2018-07-06T01:44:08.766Z,38.9
2018-07-06T01:44:58.234Z,38.9
2018-07-06T01:45:48.791Z,38.9
2018-07-06T01:46:39.126Z,38.9
2018-07-06T01:47:28.654Z,38.9
2018-07-06T01:48:18.527Z,38.9
2018-07-06T01:49:08.601Z,38.9
2018-07-06T01:49:59.401Z,38.9
2018-07-06T01:50:48.477Z,38.9
2018-07-06T01:51:39.091Z,38.9
2018-07-06T01:52:29.267Z,38.9
2018-07-06T01:53:19.519Z,38.9
2018-07-06T01:54:08.735Z,38.9
2018-07-06T01:54:59.324Z,38.9
2018-07-06T01:55:48.821Z,38.9
2018-07-06T01:56:39.379Z,38.9
2018-07-06T01:57:29.539Z,38.9
2018-07-06T01:58:19.330Z,38.9
2018-07-06T01:59:09.880Z,38.8
2018-07-06T02:00:00.230Z,38.9
2018-07-06T02:00:50.010Z,38.8
2018-07-06T02:01:40.634Z,38.8
2018-07-06T02:02:30.122Z,38.8
2018-07-06T02:03:20.455Z,38.8
2018-07-06T02:04:10.242Z,38.9
2018-07-06T02:05:00.061Z,38.8
2018-07-06T02:05:50.968Z,38.8
2018-07-06T02:06:40.145Z,38.8
2018-07-06T02:07:30.487Z,38.8
2018-07-06T02:08:20.618Z,38.8
2018-07-06T02:09:10.365Z,38.8
2018-07-06T02:10:01.240Z,38.8
2018-07-06T02:10:50.743Z,38.8
2018-07-06T02:11:41.126Z,38.8
2018-07-06T02:12:30.426Z,38.8
2018-07-06T02:13:21.026Z,38.8
2018-07-06T02:14:11.053Z,38.8
2018-07-06T02:15:01.327Z,38.8
2018-07-06T02:15:51.163Z,38.8
2018-07-06T02:16:41.725Z,38.8
2018-07-06T02:17:30.969Z,38.8
2018-07-06T02:18:21.611Z,38.8
2018-07-06T02:19:11.963Z,38.8
2018-07-06T02:20:01.442Z,38.8
2018-07-06T02:20:51.768Z,38.8
2018-07-06T02:21:41.696Z,38.8
2018-07-06T02:22:31.627Z,38.8
2018-07-06T02:23:21.982Z,38.8
2018-07-06T02:24:11.824Z,38.8
2018-07-06T02:25:02.155Z,38.8
2018-07-06T02:25:52.201Z,38.7
2018-07-06T02:26:42.301Z,38.8
2018-07-06T02:27:31.825Z,38.7
2018-07-06T02:28:21.940Z,38.7
2018-07-06T02:29:12.227Z,38.7
2018-07-06T02:30:02.867Z,38.7
2018-07-06T02:30:52.067Z,38.7
2018-07-06T02:31:42.783Z,38.7
2018-07-06T02:32:32.239Z,38.7
2018-07-06T02:33:21.948Z,38.7
2018-07-06T02:34:12.584Z,38.6
2018-07-06T02:35:02.972Z,38.7
2018-07-06T02:35:53.038Z,38.6
2018-07-06T02:36:43.073Z,38.6
2018-07-06T02:37:33.119Z,38.6
2018-07-06T02:38:23.180Z,38.6
2018-07-06T02:39:13.553Z,38.6
2018-07-06T02:40:03.354Z,38.6
2018-07-06T02:40:53.504Z,38.6
2018-07-06T02:41:43.176Z,38.6
2018-07-06T02:42:32.980Z,38.6
2018-07-06T02:43:23.306Z,38.6
2018-07-06T02:44:13.922Z,38.6
2018-07-06T02:45:03.185Z,38.6
2018-07-06T02:45:53.850Z,38.6
2018-07-06T02:46:43.602Z,38.6
2018-07-06T02:47:33.600Z,38.6
2018-07-06T02:48:23.407Z,38.6
2018-07-06T02:49:13.745Z,38.6
2018-07-06T02:50:04.481Z,38.6
2018-07-06T02:50:54.155Z,38.6
2018-07-06T02:51:43.941Z,38.6
2018-07-06T02:52:34.306Z,38.6
2018-07-06T02:53:23.331Z,38.6
2018-07-06T02:54:13.175Z,38.6
2018-07-06T02:55:04.377Z,38.6
2018-07-06T02:55:54.068Z,38.5
2018-07-06T02:56:44.243Z,38.5
2018-07-06T02:57:33.964Z,38.5
2018-07-06T02:58:23.436Z,38.5
2018-07-06T02:59:14.085Z,38.5
2018-07-06T03:00:03.767Z,38.5
2018-07-06T03:00:54.392Z,38.5
2018-07-06T03:01:44.703Z,38.5
2018-07-06T03:02:35.038Z,38.5
2018-07-06T03:03:25.394Z,38.5
2018-07-06T03:04:14.639Z,38.5
2018-07-06T03:05:05.001Z,38.5
2018-07-06T03:05:55.035Z,38.4
2018-07-06T03:06:45.394Z,38.4
2018-07-06T03:07:35.750Z,38.5
2018-07-06T03:08:25.756Z,38.4
2018-07-06T03:09:15.032Z,38.4
2018-07-06T03:10:05.650Z,38.4
2018-07-06T03:10:55.453Z,38.4
2018-07-06T03:11:45.750Z,38.4
2018-07-06T03:12:36.085Z,38.4
2018-07-06T03:13:25.949Z,38.4
2018-07-06T03:14:16.295Z,38.4
2018-07-06T03:15:06.398Z,38.4
2018-07-06T03:15:56.195Z,38.4
2018-07-06T03:16:46.220Z,38.4
2018-07-06T03:17:36.219Z,38.4
2018-07-06T03:18:25.746Z,38.4
2018-07-06T03:19:16.081Z,38.4
2018-07-06T03:20:05.639Z,38.4
2018-07-06T03:20:56.295Z,38.4
2018-07-06T03:21:46.298Z,38.4
2018-07-06T03:22:36.365Z,38.4
2018-07-06T03:23:26.936Z,38.4
2018-07-06T03:24:16.477Z,38.4
2018-07-06T03:25:21.865Z,38.4
2018-07-06T03:25:56.068Z,38.4
2018-07-06T03:26:46.113Z,38.4
2018-07-06T03:27:36.154Z,38.4
2018-07-06T03:28:28.724Z,38.3
2018-07-06T03:29:16.560Z,38.3
2018-07-06T03:30:07.254Z,38.4
2018-07-06T03:30:57.350Z,38.3
2018-07-06T03:31:46.865Z,38.3
2018-07-06T03:32:37.665Z,38.3
2018-07-06T03:33:26.610Z,38.3
2018-07-06T03:34:16.939Z,38.3
2018-07-06T03:35:07.363Z,38.3
2018-07-06T03:35:57.891Z,38.3
2018-07-06T03:36:47.697Z,38.3
2018-07-06T03:37:37.203Z,38.3
2018-07-06T03:38:27.560Z,38.3
2018-07-06T03:39:17.927Z,38.3
2018-07-06T03:40:08.247Z,38.3
2018-07-06T03:40:57.223Z,38.3
2018-07-06T03:41:48.087Z,38.3
2018-07-06T03:42:37.306Z,38.3
2018-07-06T03:43:28.202Z,38.3
2018-07-06T03:44:17.540Z,38.3
2018-07-06T03:45:08.359Z,38.3
2018-07-06T03:45:58.671Z,38.3
2018-07-06T03:46:47.948Z,38.3
2018-07-06T03:47:38.019Z,38.3
2018-07-06T03:48:28.629Z,38.3
2018-07-06T03:49:18.917Z,38.3
2018-07-06T03:50:07.729Z,38.3
2018-07-06T03:50:57.735Z,38.3
2018-07-06T03:51:48.387Z,38.3
2018-07-06T03:52:38.492Z,38.3
2018-07-06T03:53:28.791Z,38.3
2018-07-06T03:54:19.054Z,38.2
2018-07-06T03:55:09.163Z,38.2
2018-07-06T03:55:59.472Z,38.2
2018-07-06T03:56:48.800Z,38.2
2018-07-06T03:57:38.499Z,38.2
2018-07-06T03:58:28.526Z,38.2
2018-07-06T03:59:19.198Z,38.2
2018-07-06T04:00:09.906Z,38.2
2018-07-06T04:00:59.587Z,38.2
2018-07-06T04:01:49.384Z,38.2
2018-07-06T04:02:39.450Z,38.2
2018-07-06T04:03:30.096Z,38.2
2018-07-06T04:04:19.630Z,38.2
2018-07-06T04:05:09.638Z,38.2
2018-07-06T04:05:59.758Z,38.2
2018-07-06T04:06:49.812Z,38.1
2018-07-06T04:07:40.089Z,38.1
2018-07-06T04:08:29.311Z,38.1
2018-07-06T04:09:20.700Z,38.1
2018-07-06T04:10:10.213Z,38.1
2018-07-06T04:11:00.664Z,38.1
2018-07-06T04:11:50.730Z,38.1
2018-07-06T04:12:40.452Z,38.1
2018-07-06T04:13:29.952Z,38.1
2018-07-06T04:14:20.831Z,38.1
2018-07-06T04:15:10.923Z,38.1
2018-07-06T04:16:01.354Z,38.1
2018-07-06T04:16:50.473Z,38.1
2018-07-06T04:17:41.115Z,38.1
2018-07-06T04:18:30.653Z,38.1
2018-07-06T04:19:20.691Z,38.1
2018-07-06T04:20:11.334Z,38.1
2018-07-06T04:21:00.824Z,38.1
2018-07-06T04:21:51.195Z,38.1
2018-07-06T04:22:41.305Z,38.1
2018-07-06T04:23:30.198Z,38.1
2018-07-06T04:24:21.640Z,38.1
2018-07-06T04:25:11.458Z,38.1
2018-07-06T04:26:01.493Z,38.1
2018-07-06T04:26:50.556Z,38.1
2018-07-06T04:27:41.083Z,38.1
2018-07-06T04:28:31.449Z,38
2018-07-06T04:29:22.072Z,38
2018-07-06T04:30:11.835Z,38
2018-07-06T04:31:01.353Z,38.1
2018-07-06T04:31:52.326Z,38
2018-07-06T04:32:42.042Z,38
2018-07-06T04:33:32.336Z,38
2018-07-06T04:34:22.203Z,38
2018-07-06T04:35:12.544Z,38
2018-07-06T04:36:02.276Z,38
2018-07-06T04:36:52.400Z,37.9
2018-07-06T04:37:42.213Z,38
2018-07-06T04:38:32.232Z,38
2018-07-06T04:39:22.553Z,38
2018-07-06T04:40:12.307Z,37.9
2018-07-06T04:41:02.988Z,37.9
2018-07-06T04:41:52.467Z,38
2018-07-06T04:42:43.112Z,37.9
2018-07-06T04:43:32.583Z,37.9
2018-07-06T04:44:23.486Z,37.9
2018-07-06T04:45:12.505Z,37.9
2018-07-06T04:46:02.516Z,37.9
2018-07-06T04:46:52.919Z,37.9
2018-07-06T04:47:43.572Z,37.9
2018-07-06T04:48:33.274Z,37.9
2018-07-06T04:49:22.819Z,37.9
2018-07-06T04:50:13.126Z,37.9
2018-07-06T04:51:04.294Z,37.9
2018-07-06T04:51:53.519Z,37.9
2018-07-06T04:52:43.964Z,37.9
2018-07-06T04:53:33.980Z,37.9
2018-07-06T04:54:23.979Z,37.9
2018-07-06T04:55:13.450Z,37.9
2018-07-06T04:56:03.804Z,37.9
2018-07-06T04:56:53.667Z,37.9
2018-07-06T04:57:43.713Z,37.9
2018-07-06T04:58:33.775Z,37.9
2018-07-06T04:59:22.733Z,37.9
2018-07-06T05:00:13.890Z,37.9
2018-07-06T05:01:03.432Z,37.9
2018-07-06T05:01:53.980Z,37.9
2018-07-06T05:02:44.647Z,37.9
2018-07-06T05:03:33.409Z,37.9
2018-07-06T05:04:24.238Z,37.9
2018-07-06T05:05:13.709Z,37.9
2018-07-06T05:06:04.160Z,37.9
2018-07-06T05:06:54.207Z,37.9
2018-07-06T05:07:44.152Z,37.9
2018-07-06T05:08:34.325Z,37.8
2018-07-06T05:09:24.117Z,37.8
2018-07-06T05:10:14.250Z,37.8
2018-07-06T05:11:04.262Z,37.8
2018-07-06T05:11:54.309Z,37.8
2018-07-06T05:12:44.688Z,37.8
2018-07-06T05:13:34.338Z,37.8
2018-07-06T05:14:24.523Z,37.8
2018-07-06T05:15:14.355Z,37.8
2018-07-06T05:16:05.397Z,37.8
2018-07-06T05:16:55.948Z,37.8
2018-07-06T05:17:45.292Z,37.8
2018-07-06T05:18:35.889Z,37.8
2018-07-06T05:19:25.666Z,37.8
2018-07-06T05:20:15.415Z,37.8
2018-07-06T05:21:05.827Z,37.8
2018-07-06T05:21:55.832Z,37.8
2018-07-06T05:22:46.186Z,37.8
2018-07-06T05:23:35.717Z,37.8
2018-07-06T05:24:26.124Z,37.8
2018-07-06T05:25:15.590Z,37.8
2018-07-06T05:26:06.207Z,37.8
2018-07-06T05:26:56.204Z,37.8
2018-07-06T05:27:46.570Z,37.8
2018-07-06T05:28:36.143Z,37.8
2018-07-06T05:29:25.862Z,37.8
2018-07-06T05:30:16.191Z,37.8
2018-07-06T05:31:06.531Z,37.8
2018-07-06T05:31:57.071Z,37.8
2018-07-06T05:32:46.456Z,37.8
2018-07-06T05:33:36.981Z,37.8
2018-07-06T05:34:26.825Z,37.8
2018-07-06T05:35:17.171Z,37.8
2018-07-06T05:36:07.225Z,37.8
2018-07-06T05:36:57.269Z,37.8
2018-07-06T05:37:47.261Z,37.8
2018-07-06T05:38:36.859Z,37.8
2018-07-06T05:39:26.917Z,37.8
2018-07-06T05:40:17.549Z,37.8
2018-07-06T05:41:06.510Z,37.8
2018-07-06T05:41:57.648Z,37.8
2018-07-06T05:42:47.455Z,37.8
2018-07-06T05:43:37.385Z,37.8
2018-07-06T05:44:27.273Z,37.7
2018-07-06T05:45:17.494Z,37.7
2018-07-06T05:46:07.445Z,37.8
2018-07-06T05:46:56.682Z,37.8
2018-07-06T05:47:47.338Z,37.7
2018-07-06T05:48:37.783Z,37.7
2018-07-06T05:49:28.039Z,37.7
2018-07-06T05:50:17.801Z,37.7
2018-07-06T05:51:08.383Z,37.7
2018-07-06T05:51:58.191Z,37.7
2018-07-06T05:52:48.625Z,37.7
2018-07-06T05:53:38.584Z,37.7
2018-07-06T05:54:28.400Z,37.7
2018-07-06T05:55:17.632Z,37.7
2018-07-06T05:56:08.307Z,37.7
2018-07-06T05:56:58.569Z,37.7
2018-07-06T05:57:48.395Z,37.7
2018-07-06T05:58:38.481Z,37.7
2018-07-06T05:59:28.503Z,37.7
2018-07-06T06:00:18.829Z,37.7
2018-07-06T06:01:08.888Z,37.6
2018-07-06T06:01:58.634Z,37.7
2018-07-06T06:02:49.301Z,37.7
2018-07-06T06:03:38.786Z,37.7
2018-07-06T06:04:28.934Z,37.6
2018-07-06T06:05:18.700Z,37.7
2018-07-06T06:06:09.562Z,37.7
2018-07-06T06:06:59.116Z,32.9
2018-07-06T06:07:48.613Z,33.6
2018-07-06T06:08:39.691Z,40.9
2018-07-06T06:09:29.093Z,42.9
2018-07-06T06:10:19.127Z,43.1
2018-07-06T06:11:09.185Z,42.9
2018-07-06T06:11:59.476Z,42.7
2018-07-06T06:12:49.331Z,42.4
2018-07-06T06:13:39.200Z,42.1
2018-07-06T06:14:29.125Z,41.8
2018-07-06T06:15:19.046Z,41.6
2018-07-06T06:16:09.756Z,41.4
2018-07-06T06:17:00.137Z,41.2
2018-07-06T06:17:50.460Z,41.1
2018-07-06T06:18:42.126Z,40.9
2018-07-06T06:19:30.323Z,40.8
2018-07-06T06:20:19.798Z,40.7
2018-07-06T06:21:10.163Z,40.6
2018-07-06T06:22:00.253Z,40.5
2018-07-06T06:22:50.860Z,40.4
2018-07-06T06:23:40.627Z,40.3
2018-07-06T06:24:30.804Z,40.2
2018-07-06T06:25:20.652Z,40.1
2018-07-06T06:26:10.831Z,40.1
2018-07-06T06:27:00.348Z,40
2018-07-06T06:27:51.250Z,39.9
2018-07-06T06:28:40.193Z,39.8
2018-07-06T06:29:31.456Z,38.4
2018-07-06T06:30:20.157Z,45.4
2018-07-06T06:31:10.015Z,48.2
2018-07-06T06:32:01.287Z,48.2
2018-07-06T06:32:51.791Z,47.3
2018-07-06T06:33:42.804Z,46.7
2018-07-06T06:34:31.749Z,46.8
2018-07-06T06:35:20.997Z,47.4
2018-07-06T06:36:11.333Z,48.1
2018-07-06T06:37:01.680Z,48.7
2018-07-06T06:37:51.434Z,48.9
2018-07-06T06:38:41.211Z,49.1
2018-07-06T06:39:32.679Z,49.1
2018-07-06T06:40:21.637Z,49.2
2018-07-06T06:41:11.976Z,49.4
2018-07-06T06:42:02.359Z,49.6
2018-07-06T06:42:52.097Z,49.8
2018-07-06T06:43:42.242Z,49.9
2018-07-06T06:44:31.983Z,50
2018-07-06T06:45:22.176Z,50.1
2018-07-06T06:46:12.683Z,50.2
2018-07-06T06:47:01.849Z,50.3
2018-07-06T06:47:52.211Z,50.4
2018-07-06T06:48:42.544Z,50.6
2018-07-06T06:49:32.106Z,50.7
2018-07-06T06:50:22.476Z,50.8
2018-07-06T06:51:12.771Z,50.9
2018-07-06T06:52:02.269Z,51.1
2018-07-06T06:52:52.604Z,51.2
2018-07-06T06:53:42.617Z,51.3
2018-07-06T06:54:32.742Z,51.4
2018-07-06T06:55:22.331Z,51.5
2018-07-06T06:56:13.501Z,51.6
2018-07-06T06:57:03.213Z,51.7
2018-07-06T06:57:52.712Z,51.8
2018-07-06T06:58:43.590Z,51.9
2018-07-06T06:59:33.375Z,52
2018-07-06T07:00:31.880Z,52.1
2018-07-06T07:01:13.676Z,52.2
2018-07-06T07:02:02.772Z,52.3
2018-07-06T07:03:43.172Z,52.4
2018-07-06T07:04:33.851Z,52.6
2018-07-06T07:05:24.042Z,52.6
2018-07-06T07:06:14.045Z,52.7
2018-07-06T07:07:03.715Z,52.6
2018-07-06T07:07:54.686Z,52.6
2018-07-06T07:08:44.186Z,52.4
2018-07-06T07:09:34.309Z,52.3
2018-07-06T07:11:14.144Z,51.6
2018-07-06T07:12:04.167Z,51.2
2018-07-06T07:12:54.220Z,50.8
2018-07-06T07:13:45.073Z,50.6
2018-07-06T07:14:34.734Z,50.4
2018-07-06T07:15:24.384Z,50.4
2018-07-06T07:16:13.951Z,50.5
2018-07-06T07:17:04.367Z,50.6
2018-07-06T07:17:54.121Z,50.6
2018-07-06T07:18:45.021Z,50.8
2018-07-06T07:19:34.424Z,50.8
2018-07-06T07:20:23.727Z,50.9
2018-07-06T07:21:13.982Z,51
2018-07-06T07:22:05.246Z,51.1
2018-07-06T07:22:54.745Z,51.3
2018-07-06T07:23:45.942Z,51.4
2018-07-06T07:24:35.379Z,51.6
2018-07-06T07:25:25.162Z,51.8
2018-07-06T07:27:05.578Z,52.1
2018-07-06T07:27:55.669Z,52.3
2018-07-06T07:29:35.559Z,52.6
2018-07-06T07:30:25.294Z,52.7
2018-07-06T07:31:15.380Z,52.9
2018-07-06T07:32:05.977Z,53
2018-07-06T07:32:56.079Z,53.2
2018-07-06T07:33:45.594Z,53.3
2018-07-06T07:34:35.898Z,53.4
2018-07-06T07:35:26.201Z,53.6
2018-07-06T07:36:16.273Z,53.7
2018-07-06T07:37:06.621Z,53.8
2018-07-06T07:37:55.678Z,54
2018-07-06T07:38:46.537Z,54.1
2018-07-06T07:39:36.364Z,54.3
2018-07-06T07:40:26.511Z,54.4
2018-07-06T07:41:17.068Z,54.5
2018-07-06T07:42:06.491Z,54.6
2018-07-06T07:42:56.513Z,54.8
2018-07-06T07:43:46.908Z,54.9
2018-07-06T07:44:36.425Z,55.1
2018-07-06T07:45:27.452Z,55.3
2018-07-06T07:46:17.465Z,55.4
2018-07-06T07:47:07.607Z,55.5
2018-07-06T07:47:56.731Z,55.6
2018-07-06T07:48:47.291Z,55.6
2018-07-06T07:49:37.375Z,55.7
2018-07-06T07:50:27.388Z,55.8
2018-07-06T07:51:16.985Z,55.9
2018-07-06T07:52:07.551Z,56
2018-07-06T07:52:57.134Z,56.1
2018-07-06T07:53:47.944Z,56.2
2018-07-06T07:54:39.079Z,56.3
2018-07-06T07:55:27.276Z,56.4
2018-07-06T07:56:17.847Z,56.5
2018-07-06T07:57:07.825Z,56.6
2018-07-06T07:57:57.725Z,56.8
2018-07-06T07:58:47.302Z,56.9
2018-07-06T07:59:37.631Z,57
2018-07-06T08:00:29.198Z,57.1
2018-07-06T08:01:21.151Z,57.2
2018-07-06T08:02:08.839Z,57.3
2018-07-06T08:02:58.711Z,57.3
2018-07-06T08:03:48.163Z,57.2
2018-07-06T08:04:38.286Z,56.9
2018-07-06T08:05:28.672Z,56.6
2018-07-06T08:06:18.993Z,56.3
2018-07-06T08:07:09.113Z,56.2
2018-07-06T08:07:59.104Z,56.2
2018-07-06T08:08:48.363Z,56.3
2018-07-06T08:09:38.078Z,56.4
2018-07-06T08:10:28.709Z,56.4
2018-07-06T08:11:18.531Z,56.6
2018-07-06T08:12:08.290Z,56.7
2018-07-06T08:12:59.099Z,56.8
2018-07-06T08:13:49.031Z,56.9
2018-07-06T08:14:39.851Z,57
2018-07-06T08:15:29.163Z,57.1
2018-07-06T08:16:19.728Z,57.3
2018-07-06T08:17:09.535Z,57.4
2018-07-06T08:17:59.554Z,57.6
2018-07-06T08:18:49.652Z,57.7
2018-07-06T08:19:39.728Z,57.8
2018-07-06T08:20:29.743Z,57.9
2018-07-06T08:21:19.830Z,58.1
2018-07-06T08:22:10.203Z,58.3
2018-07-06T08:22:59.717Z,58.4
2018-07-06T08:23:49.789Z,58.4
2018-07-06T08:25:31.090Z,58.6
2018-07-06T08:26:19.982Z,58.8
2018-07-06T08:27:10.647Z,58.9
2018-07-06T08:28:00.142Z,59.1
2018-07-06T08:28:50.218Z,59.1
2018-07-06T08:29:40.201Z,59.2
2018-07-06T08:30:31.005Z,59.3
2018-07-06T08:31:20.636Z,59.4
2018-07-06T08:32:10.417Z,59.4
2018-07-06T08:33:00.230Z,59.5
2018-07-06T08:33:50.589Z,59.6
2018-07-06T08:34:40.889Z,59.7
2018-07-06T08:35:30.387Z,59.8
2018-07-06T08:36:20.582Z,59.9
2018-07-06T08:37:11.407Z,60
2018-07-06T08:38:00.993Z,60.1
2018-07-06T08:38:50.381Z,60.1
2018-07-06T08:39:42.071Z,60.3
2018-07-06T08:40:31.669Z,60.3
2018-07-06T08:41:21.434Z,60.4
2018-07-06T08:42:11.800Z,60.4
2018-07-06T08:43:01.532Z,60.6
2018-07-06T08:43:50.271Z,60.6
2018-07-06T08:44:40.866Z,60.7
2018-07-06T08:45:31.772Z,60.8
2018-07-06T08:46:21.547Z,60.9
2018-07-06T08:47:11.874Z,60.9
2018-07-06T08:48:01.664Z,61.1
2018-07-06T08:48:51.724Z,61.1
2018-07-06T08:49:41.772Z,61.2
2018-07-06T08:50:31.405Z,61.3
2018-07-06T08:51:22.550Z,61.3
2018-07-06T08:52:10.259Z,61.4
2018-07-06T08:53:01.570Z,61.5
2018-07-06T08:53:51.860Z,61.6
2018-07-06T08:54:42.692Z,61.6
2018-07-06T08:55:32.388Z,61.7
2018-07-06T08:56:22.326Z,61.8
2018-07-06T08:57:12.930Z,61.9
2018-07-06T08:58:02.231Z,61.9
2018-07-06T08:58:53.119Z,62
2018-07-06T08:59:43.169Z,62.1
2018-07-06T09:00:32.974Z,62.1
2018-07-06T09:01:22.425Z,62.2
2018-07-06T09:02:12.594Z,62.3
2018-07-06T09:03:02.875Z,62.3
2018-07-06T09:03:52.897Z,62.4
2018-07-06T09:04:43.827Z,62.5
2018-07-06T09:05:33.114Z,62.6
2018-07-06T09:06:22.841Z,62.6
2018-07-06T09:07:12.898Z,62.7
2018-07-06T09:08:03.041Z,62.8
2018-07-06T09:08:53.626Z,62.9
2018-07-06T09:09:43.647Z,62.9
2018-07-06T09:10:33.102Z,62.9
2018-07-06T09:11:23.675Z,63
2018-07-06T09:12:13.580Z,63
2018-07-06T09:13:05.202Z,63.1
2018-07-06T09:13:53.548Z,63.1
2018-07-06T09:14:44.340Z,63.1
2018-07-06T09:15:33.855Z,63.2
2018-07-06T09:16:24.198Z,63.3
2018-07-06T09:17:14.529Z,63.4
2018-07-06T09:18:04.635Z,63.4
2018-07-06T09:18:53.847Z,63.5
2018-07-06T09:19:46.794Z,63.6
2018-07-06T09:20:33.994Z,63.7
2018-07-06T09:21:24.234Z,63.8
2018-07-06T09:22:14.514Z,63.9
2018-07-06T09:23:04.547Z,63.9
2018-07-06T09:23:54.498Z,64
2018-07-06T09:24:44.708Z,64
2018-07-06T09:25:36.228Z,64.1
2018-07-06T09:26:25.145Z,64.1
2018-07-06T09:27:14.768Z,64.3
2018-07-06T09:28:05.086Z,64.3
2018-07-06T09:28:55.450Z,64.4
2018-07-06T09:29:45.522Z,64.4
2018-07-06T09:30:35.589Z,64.5
2018-07-06T09:31:25.490Z,64.6
2018-07-06T09:32:15.928Z,64.6
2018-07-06T09:33:05.640Z,64.7
2018-07-06T09:33:55.486Z,64.8
2018-07-06T09:34:45.367Z,64.8
2018-07-06T09:35:35.440Z,64.9
2018-07-06T09:36:25.716Z,64.9
2018-07-06T09:37:15.587Z,64.9
2018-07-06T09:38:05.904Z,65
2018-07-06T09:38:56.413Z,65.1
2018-07-06T09:39:46.083Z,65.1
2018-07-06T09:40:36.405Z,65.2
2018-07-06T09:41:26.422Z,65.3
2018-07-06T09:42:16.542Z,65.3
2018-07-06T09:43:05.734Z,65.4
2018-07-06T09:43:56.939Z,65.4
2018-07-06T09:44:46.438Z,65.5
2018-07-06T09:45:36.095Z,65.6
2018-07-06T09:46:26.617Z,65.7
2018-07-06T09:47:16.949Z,65.8
2018-07-06T09:48:06.994Z,65.9
2018-07-06T09:48:56.773Z,65.9
2018-07-06T09:49:47.342Z,66
2018-07-06T09:50:37.098Z,66.1
2018-07-06T09:51:26.688Z,66.1
2018-07-06T09:52:16.981Z,66.3
2018-07-06T09:53:07.416Z,66.4
2018-07-06T09:53:57.154Z,66.4
2018-07-06T09:54:46.951Z,66.6
2018-07-06T09:55:37.301Z,66.6
2018-07-06T09:56:27.347Z,66.8
2018-07-06T09:57:17.169Z,66.8
2018-07-06T09:58:08.741Z,66.9
2018-07-06T09:58:57.554Z,66.9
2018-07-06T09:59:47.651Z,67
2018-07-06T10:00:37.967Z,67
2018-07-06T10:01:27.992Z,67.1
2018-07-06T10:02:18.128Z,67.1
2018-07-06T10:03:07.308Z,67.2
2018-07-06T10:03:57.891Z,67.3
2018-07-06T10:04:48.049Z,67.3
2018-07-06T10:05:38.551Z,67.4
2018-07-06T10:06:27.874Z,67.4
2018-07-06T10:07:17.947Z,67.5
2018-07-06T10:08:08.011Z,67.6
2018-07-06T10:08:58.109Z,67.6
2018-07-06T10:09:47.814Z,67.7
2018-07-06T10:10:38.737Z,67.8
2018-07-06T10:11:28.806Z,67.9
2018-07-06T10:12:18.338Z,68
2018-07-06T10:13:08.654Z,68.1
2018-07-06T10:13:58.738Z,68.1
2018-07-06T10:14:48.751Z,68.3
2018-07-06T10:15:38.568Z,68.3
2018-07-06T10:16:28.980Z,68.4
2018-07-06T10:17:18.991Z,68.4
2018-07-06T10:18:08.778Z,68.5
2018-07-06T10:18:59.126Z,68.6
2018-07-06T10:19:47.654Z,68.6
2018-07-06T10:20:39.098Z,68.7
2018-07-06T10:21:29.620Z,68.8
2018-07-06T10:22:19.143Z,68.9
2018-07-06T10:23:09.493Z,68.9
2018-07-06T10:23:58.938Z,68.9
2018-07-06T10:24:48.499Z,68.9
2018-07-06T10:25:39.890Z,68.9
2018-07-06T10:26:28.952Z,69
2018-07-06T10:27:20.174Z,69.1
2018-07-06T10:28:09.817Z,69.2
2018-07-06T10:28:59.907Z,69.3
2018-07-06T10:29:49.952Z,69.4
2018-07-06T10:30:39.794Z,69.6
2018-07-06T10:31:29.524Z,69.7
2018-07-06T10:32:20.191Z,69.5
2018-07-06T10:33:10.363Z,69.3
2018-07-06T10:34:01.432Z,69.4
2018-07-06T10:34:49.809Z,69.8
2018-07-06T10:35:40.707Z,70.1
2018-07-06T10:36:30.005Z,70.3
2018-07-06T10:37:20.582Z,69.9
2018-07-06T10:38:10.649Z,68.9
2018-07-06T10:39:00.656Z,67.8
2018-07-06T10:39:53.100Z,66.8
2018-07-06T10:40:40.589Z,66
2018-07-06T10:41:31.151Z,65.6
2018-07-06T10:42:20.662Z,65.3
2018-07-06T10:43:11.242Z,64.9
2018-07-06T10:44:01.366Z,64.6
2018-07-06T10:44:51.425Z,64.3
2018-07-06T10:45:41.456Z,64
2018-07-06T10:46:30.128Z,63.8
2018-07-06T10:47:20.825Z,63.5
2018-07-06T10:48:11.103Z,63.3
2018-07-06T10:49:01.724Z,63.1
2018-07-06T10:49:51.533Z,62.9
2018-07-06T10:50:41.327Z,62.8
2018-07-06T10:51:31.719Z,62.6
2018-07-06T10:52:22.061Z,62.5
2018-07-06T10:53:11.803Z,62.4
2018-07-06T10:54:01.844Z,62.3
2018-07-06T10:54:52.229Z,62.3
2018-07-06T10:55:42.042Z,62.2
2018-07-06T10:56:32.042Z,62.2
2018-07-06T10:57:22.123Z,62.3
2018-07-06T10:58:12.224Z,62.4
2018-07-06T10:59:01.416Z,62.7
2018-07-06T10:59:52.642Z,63.1
2018-07-06T11:00:42.104Z,63.5
2018-07-06T11:01:32.523Z,63.6
2018-07-06T11:02:22.525Z,63.6
2018-07-06T11:03:12.618Z,63.6
2018-07-06T11:04:02.658Z,63.8
2018-07-06T11:04:52.698Z,64.1
2018-07-06T11:05:42.290Z,64.5
2018-07-06T11:06:33.108Z,64.4
2018-07-06T11:07:23.195Z,64.1
2018-07-06T11:08:12.715Z,64
2018-07-06T11:09:03.512Z,64.4
2018-07-06T11:09:52.548Z,65.2
2018-07-06T11:10:43.216Z,66.1
2018-07-06T11:11:33.475Z,66.6
2018-07-06T11:12:23.623Z,66.5
2018-07-06T11:13:13.707Z,66